Time;durP1;ratioP1;P1;durP2;ratioP2;P2;SDS_P1;SDS_P2;PMS_P1;PMS_P2;Temp;Humidity;BMP_temperature;BMP_pressure;BME280_temperature;BME280_humidity;BME280_pressure;Samples;Min_cycle;Max_cycle;Signal;HPM_P1;HPM_P2
2023/03/19 00:02:19;;;;;;;1.55;1.20;;;15.60;78.70;;;;;;4919098;29;20114;-86
2023/03/19 00:04:45;;;;;;;1.00;1.00;;;15.60;78.70;;;;;;4903561;29;20032;-86
2023/03/19 00:07:12;;;;;;;1.17;1.10;;;15.60;78.70;;;;;;4903573;29;20031;-87
2023/03/19 00:09:38;;;;;;;1.10;1.00;;;15.60;78.70;;;;;;4903637;29;20451;-84
2023/03/19 00:12:04;;;;;;;1.30;1.20;;;15.60;78.70;;;;;;4904087;29;20114;-85
2023/03/19 00:14:30;;;;;;;1.25;1.17;;;15.60;78.70;;;;;;4935775;29;20033;-85
2023/03/19 00:16:56;;;;;;;1.25;1.17;;;15.50;78.70;;;;;;4903374;29;20032;-85
2023/03/19 00:19:22;;;;;;;1.30;1.20;;;15.50;78.70;;;;;;4905496;29;20020;-85
2023/03/19 00:21:50;;;;;;;1.02;1.00;;;15.50;78.70;;;;;;4919138;29;20449;-85
2023/03/19 00:24:16;;;;;;;1.13;1.05;;;15.50;78.70;;;;;;4920113;29;20033;-86
2023/03/19 00:26:43;;;;;;;1.17;1.10;;;15.50;78.70;;;;;;4919393;29;20036;-83
2023/03/19 00:29:09;;;;;;;1.33;1.20;;;15.50;78.80;;;;;;4919733;29;20028;-83
2023/03/19 00:31:35;;;;;;;1.23;1.10;;;15.50;78.80;;;;;;4903877;29;20091;-83
2023/03/19 00:34:02;;;;;;;1.33;1.15;;;15.40;79.40;;;;;;4918686;29;20131;-85
2023/03/19 00:36:28;;;;;;;1.33;1.23;;;15.40;78.70;;;;;;4902898;29;20028;-84
2023/03/19 00:38:56;;;;;;;1.20;1.10;;;15.40;78.80;;;;;;4887684;29;20028;-84
2023/03/19 00:41:23;;;;;;;1.20;1.10;;;15.40;78.80;;;;;;4902959;29;20032;-84
2023/03/19 00:43:53;;;;;;;1.20;1.10;;;15.40;78.80;;;;;;4902687;29;20024;-86
2023/03/19 00:46:19;;;;;;;1.20;1.10;;;15.40;78.80;;;;;;4919021;29;20036;-84
2023/03/19 00:48:45;;;;;;;1.38;1.27;;;15.40;78.80;;;;;;4934642;29;20028;-84
2023/03/19 00:51:11;;;;;;;1.40;1.20;;;15.30;78.70;;;;;;4902247;29;20038;-84
2023/03/19 00:53:42;;;;;;;1.58;1.30;;;15.30;78.80;;;;;;4902516;29;20043;-83
2023/03/19 00:56:10;;;;;;;0.95;0.95;;;15.30;78.70;;;;;;4887525;29;20087;-85
2023/03/19 00:58:37;;;;;;;1.08;1.00;;;15.30;78.70;;;;;;4902451;29;20036;-85
2023/03/19 01:01:04;;;;;;;1.10;1.00;;;15.30;78.70;;;;;;4887593;29;20115;-85
2023/03/19 01:03:30;;;;;;;1.30;1.20;;;15.30;78.70;;;;;;4902808;29;20047;-84
2023/03/19 01:05:58;;;;;;;1.73;1.30;;;15.30;78.80;;;;;;4918785;29;20032;-85
2023/03/19 01:08:24;;;;;;;1.40;1.30;;;15.20;78.70;;;;;;4902457;29;20495;-84
2023/03/19 01:10:52;;;;;;;1.27;1.15;;;15.20;78.70;;;;;;4902759;29;20039;-84
2023/03/19 01:13:19;;;;;;;1.00;1.00;;;15.20;78.80;;;;;;4918356;29;20040;-85
2023/03/19 01:15:45;;;;;;;1.15;1.10;;;15.20;78.80;;;;;;4918575;29;20465;-86
2023/03/19 01:18:11;;;;;;;1.25;1.15;;;15.20;78.80;;;;;;4918223;29;20528;-85
2023/03/19 01:20:41;;;;;;;1.30;1.20;;;15.20;78.80;;;;;;4902755;29;20176;-84
2023/03/19 01:23:07;;;;;;;1.60;1.15;;;15.20;78.90;;;;;;4933956;29;20035;-85
2023/03/19 01:25:33;;;;;;;1.40;1.30;;;15.20;78.90;;;;;;4901955;29;20115;-85
2023/03/19 01:28:02;;;;;;;1.38;1.27;;;15.20;78.80;;;;;;4936502;29;20028;-86
2023/03/19 01:30:28;;;;;;;1.20;1.10;;;15.10;78.80;;;;;;4923308;29;20026;-85
2023/03/19 01:33:02;;;;;;;;;;;15.10;78.80;;;;;;4925123;29;20052;-86
2023/03/19 01:35:51;;;;;;;1.45;1.35;;;15.00;78.70;;;;;;4904436;29;20360;-85
2023/03/19 01:38:19;;;;;;;1.15;1.10;;;15.10;78.70;;;;;;4887014;29;20024;-85
2023/03/19 01:40:47;;;;;;;1.30;1.20;;;15.10;78.80;;;;;;4902150;29;20517;-85
2023/03/19 01:43:24;;;;;;;1.35;1.17;;;15.00;78.80;;;;;;4918201;29;20058;-85
2023/03/19 01:46:03;;;;;;;2.20;1.30;;;15.00;78.90;;;;;;4917561;29;20470;-84
2023/03/19 01:49:05;;;;;;;1.08;1.00;;;15.00;78.80;;;;;;4886398;29;20044;-84
2023/03/19 01:51:37;;;;;;;1.10;1.00;;;15.00;78.80;;;;;;4901621;29;20060;-85
2023/03/19 01:54:40;;;;;;;1.25;1.10;;;15.00;78.90;;;;;;4878749;29;20045;-83
2023/03/19 01:57:15;;;;;;;1.15;1.10;;;15.00;78.90;;;;;;4897910;29;20052;-85
2023/03/19 02:00:00;;;;;;;;;;;14.90;78.80;;;;;;4904614;29;20405;-84
2023/03/19 02:02:53;;;;;;;1.20;1.10;;;14.90;78.80;;;;;;4930938;29;20052;-85
2023/03/19 02:05:42;;;;;;;1.17;1.08;;;14.90;78.80;;;;;;4888659;29;20047;-86
2023/03/19 02:08:15;;;;;;;1.23;1.10;;;14.90;78.90;;;;;;4900899;29;20122;-84
2023/03/19 02:10:43;;;;;;;1.00;1.00;;;14.80;78.90;;;;;;4933182;29;20130;-85
2023/03/19 02:13:09;;;;;;;1.40;1.30;;;14.80;78.90;;;;;;4918503;29;20492;-85
2023/03/19 02:15:35;;;;;;;1.02;1.00;;;14.80;78.90;;;;;;4901642;29;20073;-84
2023/03/19 02:18:01;;;;;;;1.23;1.13;;;14.80;78.90;;;;;;4886189;29;20030;-84
2023/03/19 02:20:43;;;;;;;1.23;1.13;;;14.80;78.90;;;;;;4901671;29;20059;-83
2023/03/19 02:23:33;;;;;;;1.35;1.25;;;14.80;79.00;;;;;;4917329;29;20047;-84
2023/03/19 02:26:12;;;;;;;1.33;1.23;;;14.80;79.00;;;;;;4901671;29;20143;-85
2023/03/19 02:28:42;;;;;;;1.88;1.00;;;14.80;78.90;;;;;;4901519;29;20118;-84
2023/03/19 02:31:10;;;;;;;1.33;1.23;;;14.70;78.90;;;;;;4901496;29;20073;-84
2023/03/19 02:33:37;;;;;;;1.73;1.25;;;14.70;78.90;;;;;;4885815;29;20047;-85
2023/03/19 02:36:09;;;;;;;1.60;1.27;;;14.70;78.90;;;;;;4901452;29;20028;-85
2023/03/19 02:38:37;;;;;;;1.40;1.30;;;14.70;79.00;;;;;;4901739;29;20036;-85
2023/03/19 02:41:06;;;;;;;1.30;1.17;;;14.70;79.00;;;;;;4885757;29;20104;-84
2023/03/19 02:43:34;;;;;;;1.50;1.40;;;14.60;78.90;;;;;;4932812;29;20036;-84
2023/03/19 02:46:01;;;;;;;1.45;1.30;;;14.60;78.90;;;;;;4901086;29;20465;-84
2023/03/19 02:48:27;;;;;;;1.33;1.23;;;14.60;78.90;;;;;;4918637;29;20506;-84
2023/03/19 02:50:54;;;;;;;1.55;1.25;;;14.60;78.90;;;;;;4917092;29;20075;-85
2023/03/19 02:53:21;;;;;;;1.30;1.20;;;14.60;78.90;;;;;;4900805;29;20044;-84
2023/03/19 02:55:46;;;;;;;1.58;1.30;;;14.60;78.90;;;;;;4900968;29;20031;-84
2023/03/19 02:58:13;;;;;;;1.50;1.40;;;14.60;78.90;;;;;;4901026;29;20048;-85
2023/03/19 03:00:40;;;;;;;1.90;1.35;;;14.60;79.00;;;;;;4916767;29;20520;-84
2023/03/19 03:03:06;;;;;;;1.38;1.20;;;14.50;78.90;;;;;;4916878;29;20032;-85
2023/03/19 03:05:33;;;;;;;1.75;1.40;;;14.60;79.00;;;;;;4916355;29;20087;-84
2023/03/19 03:07:59;;;;;;;1.42;1.30;;;14.50;79.00;;;;;;4916281;29;20043;-84
2023/03/19 03:10:26;;;;;;;1.40;1.30;;;14.50;79.00;;;;;;4885678;29;20377;-84
2023/03/19 03:12:52;;;;;;;1.55;1.33;;;14.50;79.00;;;;;;4900669;29;20071;-83
2023/03/19 03:15:18;;;;;;;1.58;1.30;;;14.50;79.00;;;;;;4917153;29;20044;-84
2023/03/19 03:17:44;;;;;;;1.65;1.40;;;14.50;79.00;;;;;;4916644;29;20035;-85
2023/03/19 03:20:12;;;;;;;1.30;1.20;;;14.50;79.00;;;;;;4916874;29;20042;-85
2023/03/19 03:22:39;;;;;;;1.40;1.30;;;14.50;79.00;;;;;;4904388;29;20047;-85
2023/03/19 03:25:05;;;;;;;1.50;1.33;;;14.50;79.00;;;;;;4904186;29;20151;-85
2023/03/19 03:27:31;;;;;;;1.48;1.38;;;14.40;79.00;;;;;;4936734;29;20114;-85
2023/03/19 03:29:57;;;;;;;1.20;1.10;;;14.50;79.00;;;;;;4935787;29;20071;-84
2023/03/19 03:32:24;;;;;;;1.50;1.40;;;14.40;79.00;;;;;;4919955;29;20055;-84
2023/03/19 03:34:50;;;;;;;1.38;1.27;;;14.40;79.00;;;;;;4904366;29;20475;-85
2023/03/19 03:37:16;;;;;;;1.65;1.40;;;14.40;79.00;;;;;;4904196;29;20032;-83
2023/03/19 03:39:42;;;;;;;1.48;1.38;;;14.40;79.00;;;;;;4919785;29;20056;-85
2023/03/19 03:42:09;;;;;;;1.92;1.50;;;14.40;79.70;;;;;;4919813;29;20080;-85
2023/03/19 03:44:37;;;;;;;1.50;1.40;;;14.40;79.10;;;;;;4904213;29;20151;-86
2023/03/19 03:47:03;;;;;;;1.60;1.50;;;14.40;79.10;;;;;;4904571;29;20461;-85
2023/03/19 03:49:29;;;;;;;1.67;1.50;;;14.40;79.10;;;;;;4888581;29;20028;-85
2023/03/19 03:51:56;;;;;;;1.50;1.40;;;14.40;79.10;;;;;;4888817;29;20031;-85
2023/03/19 03:54:22;;;;;;;1.70;1.50;;;14.40;79.10;;;;;;4903692;29;20048;-84
2023/03/19 03:56:49;;;;;;;1.65;1.40;;;14.40;79.10;;;;;;4903495;29;20078;-85
2023/03/19 03:59:15;;;;;;;1.52;1.42;;;14.40;79.10;;;;;;4919922;29;20036;-86
2023/03/19 04:01:41;;;;;;;2.30;1.50;;;14.30;79.10;;;;;;4921038;29;20062;-85
2023/03/19 04:04:07;;;;;;;1.90;1.70;;;14.30;79.10;;;;;;4906097;29;20437;-85
2023/03/19 04:06:33;;;;;;;1.55;1.42;;;14.30;79.10;;;;;;4908493;29;20066;-84
2023/03/19 04:09:22;;;;;;;1.67;1.58;;;14.40;79.20;;;;;;4929941;29;20092;-84
2023/03/19 04:11:48;;;;;;;1.60;1.40;;;14.30;79.10;;;;;;4923122;29;20040;-84
2023/03/19 04:14:15;;;;;;;1.98;1.65;;;14.30;79.10;;;;;;4891707;29;20032;-85
2023/03/19 04:16:42;;;;;;;2.13;1.50;;;14.30;79.10;;;;;;4923795;29;20076;-85
2023/03/19 04:19:08;;;;;;;1.98;1.70;;;14.30;79.10;;;;;;4920056;29;20036;-84
2023/03/19 04:21:34;;;;;;;1.60;1.45;;;14.20;79.10;;;;;;4935985;29;20367;-85
2023/03/19 04:24:01;;;;;;;2.20;1.70;;;14.30;79.20;;;;;;4903842;29;20043;-85
2023/03/19 04:26:27;;;;;;;2.10;1.70;;;14.20;79.10;;;;;;4887764;29;20028;-85
2023/03/19 04:28:53;;;;;;;1.77;1.60;;;14.20;79.10;;;;;;4903552;29;20031;-83
2023/03/19 04:31:18;;;;;;;1.90;1.70;;;14.20;79.10;;;;;;4918309;29;20050;-85
2023/03/19 04:33:44;;;;;;;2.30;1.70;;;14.20;79.10;;;;;;4903398;29;20143;-84
2023/03/19 04:36:10;;;;;;;2.03;1.65;;;14.20;79.10;;;;;;4919122;29;20032;-85
2023/03/19 04:38:37;;;;;;;2.72;2.20;;;14.20;79.10;;;;;;4887658;29;20024;-84
2023/03/19 04:41:03;;;;;;;2.55;1.90;;;14.20;79.10;;;;;;4936138;29;20032;-85
2023/03/19 04:43:32;;;;;;;2.35;2.05;;;14.20;79.10;;;;;;4905153;29;20036;-85
2023/03/19 04:45:59;;;;;;;2.25;1.90;;;14.20;79.20;;;;;;4906327;29;20046;-86
2023/03/19 04:48:25;;;;;;;1.88;1.67;;;14.10;79.10;;;;;;4922592;29;20043;-83
2023/03/19 04:50:55;;;;;;;2.78;1.90;;;14.10;79.10;;;;;;4902847;29;20043;-85
2023/03/19 04:53:22;;;;;;;2.00;1.80;;;14.10;79.10;;;;;;4918288;29;20039;-84
2023/03/19 04:55:48;;;;;;;2.20;1.92;;;14.10;79.80;;;;;;4887517;29;20071;-85
2023/03/19 04:58:22;;;;;;;3.58;2.20;;;14.10;79.10;;;;;;4902083;29;20056;-85
2023/03/19 05:00:55;;;;;;;2.55;2.13;;;14.10;79.10;;;;;;4903006;29;20047;-84
2023/03/19 05:03:31;;;;;;;2.70;2.15;;;14.10;79.10;;;;;;4917910;29;20064;-84
2023/03/19 05:05:56;;;;;;;2.88;2.20;;;14.00;79.10;;;;;;4886748;29;20481;-85
2023/03/19 05:08:23;;;;;;;2.65;2.10;;;14.00;79.10;;;;;;4902915;29;20096;-85
2023/03/19 05:10:49;;;;;;;3.13;2.30;;;14.00;79.10;;;;;;4919830;29;20453;-84
2023/03/19 05:13:15;;;;;;;2.63;2.15;;;14.00;79.10;;;;;;4902758;29;20040;-83
2023/03/19 05:15:47;;;;;;;3.22;2.30;;;14.00;79.10;;;;;;4887982;29;20036;-84
2023/03/19 05:18:13;;;;;;;3.50;2.60;;;13.90;79.10;;;;;;4918603;29;20564;-86
2023/03/19 05:20:43;;;;;;;3.08;2.35;;;13.90;79.10;;;;;;4935030;29;20076;-85
2023/03/19 05:23:18;;;;;;;3.65;2.60;;;13.90;79.10;;;;;;4918345;29;20127;-85
2023/03/19 05:26:02;;;;;;;3.10;2.55;;;13.90;79.10;;;;;;4935005;29;20048;-86
2023/03/19 05:28:54;;;;;;;3.05;2.40;;;13.90;79.10;;;;;;4901441;29;20127;-84
2023/03/19 05:31:29;;;;;;;;;;;13.90;79.10;;;;;;4917532;29;20032;-83
2023/03/19 05:33:55;;;;;;;4.25;2.60;;;13.80;79.00;;;;;;4918227;29;19922;-85
2023/03/19 05:36:22;;;;;;;3.13;2.38;;;13.80;79.00;;;;;;4886643;29;20118;-85
2023/03/19 05:38:59;;;;;;;3.30;2.38;;;13.80;79.10;;;;;;4916681;29;20036;-85
2023/03/19 05:41:31;;;;;;;3.33;2.63;;;13.80;79.10;;;;;;4919761;29;20032;-85
2023/03/19 05:44:03;;;;;;;3.58;2.60;;;13.80;79.80;;;;;;4901549;29;20180;-84
2023/03/19 05:46:47;;;;;;;3.67;2.47;;;13.80;79.20;;;;;;4931072;29;20434;-83
2023/03/19 05:49:15;;;;;;;3.80;2.97;;;13.80;79.10;;;;;;4901767;29;20039;-84
2023/03/19 05:51:40;;;;;;;4.28;3.20;;;13.70;79.10;;;;;;4902323;29;20032;-86
2023/03/19 05:54:07;;;;;;;3.42;2.80;;;13.70;79.20;;;;;;4917706;29;20100;-85
2023/03/19 05:56:36;;;;;;;3.88;2.70;;;13.80;79.20;;;;;;4885801;29;20099;-84
2023/03/19 05:59:37;;;;;;;4.47;3.03;;;13.70;79.20;;;;;;4852486;29;20042;-83
2023/03/19 06:02:23;;;;;;;5.80;3.08;;;13.70;79.20;;;;;;4895319;29;20036;-85
2023/03/19 06:04:56;;;;;;;4.28;2.97;;;13.70;79.20;;;;;;4901633;29;20485;-85
2023/03/19 06:07:26;;;;;;;4.15;3.08;;;13.70;79.30;;;;;;4886049;29;20036;-85
2023/03/19 06:09:53;;;;;;;4.68;3.50;;;13.70;79.30;;;;;;4916986;29;20038;-85
2023/03/19 06:12:18;;;;;;;4.03;3.10;;;13.70;79.30;;;;;;4886430;29;20032;-84
2023/03/19 06:15:06;;;;;;;3.63;2.83;;;13.70;79.30;;;;;;4902073;29;20095;-86
2023/03/19 06:17:54;;;;;;;4.88;3.50;;;13.70;79.30;;;;;;4904386;29;20099;-86
2023/03/19 06:20:20;;;;;;;4.20;3.15;;;13.70;79.20;;;;;;4917327;29;20071;-86
2023/03/19 06:22:46;;;;;;;5.53;3.58;;;13.70;79.30;;;;;;4902166;29;20028;-84
2023/03/19 06:25:12;;;;;;;5.55;3.80;;;13.70;79.30;;;;;;4902204;29;20119;-85
2023/03/19 06:27:39;;;;;;;4.75;3.35;;;13.70;79.30;;;;;;4901367;29;20028;-85
2023/03/19 06:30:17;;;;;;;4.20;3.20;;;13.70;79.30;;;;;;4902252;29;20036;-85
2023/03/19 06:32:43;;;;;;;5.20;3.58;;;13.60;79.30;;;;;;4902772;29;20343;-85
2023/03/19 06:35:14;;;;;;;4.32;3.22;;;13.60;79.30;;;;;;4917522;29;20099;-86
2023/03/19 06:37:42;;;;;;;4.63;3.50;;;13.60;79.40;;;;;;4886626;29;20039;-85
2023/03/19 06:40:09;;;;;;;4.72;3.60;;;13.60;79.30;;;;;;4933318;29;20032;-84
2023/03/19 06:42:35;;;;;;;4.85;3.33;;;13.60;79.30;;;;;;4917633;29;20032;-84
2023/03/19 06:45:01;;;;;;;4.35;3.28;;;13.60;79.30;;;;;;4902085;29;20036;-86
2023/03/19 06:47:27;;;;;;;4.20;3.10;;;13.60;79.40;;;;;;4917979;29;20039;-87
2023/03/19 06:49:53;;;;;;;4.75;3.40;;;13.60;79.40;;;;;;4902063;29;20035;-85
2023/03/19 06:52:19;;;;;;;4.70;3.70;;;13.60;79.40;;;;;;4901621;29;20036;-85
2023/03/19 06:54:45;;;;;;;4.50;3.35;;;13.60;79.40;;;;;;4887091;29;20050;-89
2023/03/19 06:57:11;;;;;;;4.70;3.63;;;13.60;79.40;;;;;;4923863;29;20082;-89
2023/03/19 06:59:37;;;;;;;4.57;3.50;;;13.60;79.40;;;;;;4923460;29;20433;-87
2023/03/19 07:02:04;;;;;;;5.68;3.97;;;13.60;79.40;;;;;;4905343;29;20060;-88
2023/03/19 07:04:30;;;;;;;4.00;3.20;;;13.70;79.40;;;;;;4889160;29;20032;-89
2023/03/19 07:06:55;;;;;;;4.80;3.45;;;13.60;79.40;;;;;;4904560;29;20094;-89
2023/03/19 07:09:22;;;;;;;5.05;3.63;;;13.60;79.40;;;;;;4921026;29;20036;-85
2023/03/19 07:11:48;;;;;;;4.47;3.22;;;13.60;79.40;;;;;;4920312;29;20040;-88
2023/03/19 07:14:14;;;;;;;5.35;3.65;;;13.60;79.40;;;;;;4904690;29;20047;-88
2023/03/19 07:16:39;;;;;;;4.78;3.40;;;13.60;79.40;;;;;;4904350;29;20104;-86
2023/03/19 07:19:06;;;;;;;5.43;3.83;;;13.60;79.40;;;;;;4920911;29;20115;-87
2023/03/19 07:21:31;;;;;;;5.72;3.58;;;13.60;79.40;;;;;;4921755;29;20032;-87
2023/03/19 07:23:57;;;;;;;4.55;3.30;;;13.60;79.40;;;;;;4923896;29;20047;-88
2023/03/19 07:26:23;;;;;;;5.05;3.58;;;13.70;79.40;;;;;;4907607;29;20111;-88
2023/03/19 07:28:49;;;;;;;4.82;3.53;;;13.70;79.40;;;;;;4907657;29;20099;-89
2023/03/19 07:31:15;;;;;;;4.97;3.90;;;13.70;79.40;;;;;;4921360;29;20432;-88
2023/03/19 07:33:41;;;;;;;5.00;3.67;;;13.70;79.40;;;;;;4904475;29;20036;-88
2023/03/19 07:36:07;;;;;;;4.78;3.63;;;13.70;79.40;;;;;;4936221;29;20028;-86
2023/03/19 07:38:33;;;;;;;4.55;3.45;;;13.60;79.40;;;;;;4935567;29;20036;-86
2023/03/19 07:40:59;;;;;;;4.53;3.50;;;13.70;79.40;;;;;;4904044;29;20038;-84
2023/03/19 07:43:25;;;;;;;4.95;3.40;;;13.70;79.50;;;;;;4919634;29;20068;-86
2023/03/19 07:45:50;;;;;;;5.88;4.15;;;13.70;79.50;;;;;;4935393;29;20028;-85
2023/03/19 07:48:17;;;;;;;4.88;3.50;;;13.70;79.50;;;;;;4919268;29;20032;-88
2023/03/19 07:50:43;;;;;;;4.20;3.55;;;13.70;79.60;;;;;;4903358;29;20400;-85
2023/03/19 07:53:10;;;;;;;5.57;4.00;;;13.70;79.60;;;;;;4903153;29;20036;-86
2023/03/19 07:55:36;;;;;;;4.40;3.55;;;13.70;79.60;;;;;;4919378;29;20040;-82
2023/03/19 07:58:02;;;;;;;4.63;3.33;;;13.70;79.60;;;;;;4903967;29;20063;-86
2023/03/19 08:00:28;;;;;;;4.53;3.65;;;13.70;79.60;;;;;;4920492;29;20032;-84
2023/03/19 08:02:54;;;;;;;5.07;3.80;;;13.70;79.70;;;;;;4935522;29;20370;-84
2023/03/19 08:05:20;;;;;;;4.90;3.65;;;13.70;79.70;;;;;;4935423;29;20032;-84
2023/03/19 08:07:48;;;;;;;5.00;3.75;;;13.70;79.70;;;;;;4917905;29;20389;-84
2023/03/19 08:10:14;;;;;;;4.78;3.55;;;13.70;79.70;;;;;;4918688;29;20040;-87
2023/03/19 08:12:40;;;;;;;4.88;3.78;;;13.70;79.70;;;;;;4903238;29;20031;-87
2023/03/19 08:15:08;;;;;;;5.32;3.90;;;13.70;79.70;;;;;;4918992;29;20038;-86
2023/03/19 08:17:37;;;;;;;4.72;3.78;;;13.70;79.80;;;;;;4918421;29;20110;-89
2023/03/19 08:20:08;;;;;;;4.43;3.30;;;13.80;79.80;;;;;;4918734;29;20036;-88
2023/03/19 08:22:35;;;;;;;5.45;3.85;;;13.80;79.80;;;;;;4902863;29;20084;-88
2023/03/19 08:25:03;;;;;;;4.25;3.53;;;13.80;79.80;;;;;;4902889;29;20052;-88
2023/03/19 08:27:30;;;;;;;4.85;3.78;;;13.80;79.80;;;;;;4903184;29;20031;-89
2023/03/19 08:29:57;;;;;;;4.65;3.80;;;13.80;79.80;;;;;;4918389;29;20062;-85
2023/03/19 08:32:23;;;;;;;4.72;3.90;;;13.80;79.80;;;;;;4918381;29;20032;-88
2023/03/19 08:34:50;;;;;;;4.72;3.72;;;13.80;79.80;;;;;;4918246;29;20037;-87
2023/03/19 08:37:16;;;;;;;4.90;3.85;;;13.80;79.80;;;;;;4886846;29;20036;-86
2023/03/19 08:39:42;;;;;;;4.70;3.58;;;13.90;79.80;;;;;;4887490;29;20087;-86
2023/03/19 08:42:07;;;;;;;5.18;3.85;;;13.90;79.80;;;;;;4902937;29;20039;-86
2023/03/19 08:44:33;;;;;;;4.88;3.85;;;13.90;79.80;;;;;;4902501;29;20043;-87
2023/03/19 08:46:59;;;;;;;5.28;3.90;;;13.90;79.80;;;;;;4887090;29;20367;-85
2023/03/19 08:49:25;;;;;;;4.47;3.42;;;13.90;79.80;;;;;;4918674;29;20037;-86
2023/03/19 08:51:51;;;;;;;4.35;3.30;;;13.90;79.70;;;;;;4918290;29;20042;-84
2023/03/19 08:54:17;;;;;;;4.63;3.97;;;14.00;79.80;;;;;;4902026;29;20115;-86
2023/03/19 08:56:42;;;;;;;4.65;3.65;;;14.00;79.80;;;;;;4903454;29;20024;-85
2023/03/19 08:59:08;;;;;;;5.60;4.25;;;14.00;79.80;;;;;;4918905;29;20331;-84
2023/03/19 09:01:35;;;;;;;5.70;4.13;;;14.00;79.70;;;;;;4918056;29;20079;-85
2023/03/19 09:04:01;;;;;;;4.88;3.95;;;14.00;79.70;;;;;;4902456;29;20066;-85
2023/03/19 09:06:26;;;;;;;5.53;3.88;;;14.00;79.70;;;;;;4901999;29;20087;-85
2023/03/19 09:08:52;;;;;;;5.82;4.00;;;14.00;79.70;;;;;;4902108;29;20462;-84
2023/03/19 09:11:18;;;;;;;4.72;3.75;;;14.10;79.70;;;;;;4902684;29;20175;-84
2023/03/19 09:13:44;;;;;;;5.70;3.47;;;14.10;79.70;;;;;;4902181;29;20466;-86
2023/03/19 09:16:10;;;;;;;4.95;3.75;;;14.10;79.70;;;;;;4901710;29;20043;-85
2023/03/19 09:18:36;;;;;;;4.47;3.58;;;14.10;79.70;;;;;;4917608;29;20036;-84
2023/03/19 09:21:02;;;;;;;5.20;3.67;;;14.10;79.70;;;;;;4902178;29;20118;-84
2023/03/19 09:23:28;;;;;;;4.65;3.40;;;14.10;79.70;;;;;;4918269;29;20039;-84
2023/03/19 09:25:54;;;;;;;4.60;3.53;;;14.10;79.70;;;;;;4901825;29;20055;-84
2023/03/19 09:28:20;;;;;;;5.18;3.95;;;14.20;79.70;;;;;;4886404;29;20032;-84
2023/03/19 09:30:47;;;;;;;4.45;3.78;;;14.20;79.70;;;;;;4917470;29;20047;-85
2023/03/19 09:33:15;;;;;;;5.15;4.18;;;14.20;79.70;;;;;;4902346;29;20032;-86
2023/03/19 09:35:42;;;;;;;5.07;3.85;;;14.20;79.70;;;;;;4901793;29;20039;-85
2023/03/19 09:38:08;;;;;;;4.97;4.07;;;14.30;79.70;;;;;;4901315;29;20035;-85
2023/03/19 09:40:40;;;;;;;5.03;3.97;;;14.30;79.70;;;;;;4901382;29;20525;-84
2023/03/19 09:43:35;;;;;;;5.18;4.13;;;14.30;79.70;;;;;;4901302;29;20032;-84
2023/03/19 09:46:05;;;;;;;4.60;3.83;;;14.30;79.70;;;;;;4901396;29;20064;-88
2023/03/19 09:48:42;;;;;;;4.88;3.90;;;14.40;79.60;;;;;;4916887;29;20032;-84
2023/03/19 09:51:17;;;;;;;5.25;3.90;;;14.40;79.60;;;;;;4901546;29;20036;-87
2023/03/19 09:54:00;;;;;;;5.93;4.35;;;14.40;79.60;;;;;;4885722;29;20043;-84
2023/03/19 09:56:26;;;;;;;5.20;4.25;;;14.50;79.50;;;;;;4932911;29;20032;-84
2023/03/19 09:58:52;;;;;;;5.28;4.35;;;14.50;79.30;;;;;;4932238;29;20052;-86
2023/03/19 10:01:34;;;;;;;5.60;4.50;;;14.60;79.30;;;;;;4900825;29;20484;-85
2023/03/19 10:04:53;;;;;;;5.47;4.47;;;14.70;79.30;;;;;;4916929;29;20417;-84
2023/03/19 10:07:40;;;;;;;5.13;4.35;;;14.70;79.20;;;;;;4859384;29;20033;-85
2023/03/19 10:10:24;;;;;;;5.50;4.70;;;14.80;79.10;;;;;;4898555;29;20139;-86
2023/03/19 10:13:19;;;;;;;5.85;4.93;;;14.90;79.00;;;;;;4917286;29;20082;-85
2023/03/19 10:15:46;;;;;;;5.43;4.65;;;14.90;79.00;;;;;;4886494;29;20052;-85
2023/03/19 10:18:39;;;;;;;7.53;5.35;;;15.00;78.90;;;;;;4916575;29;20039;-85
2023/03/19 10:21:41;;;;;;;5.78;4.72;;;15.00;78.90;;;;;;4901441;29;20116;-85
2023/03/19 10:24:30;;;;;;;6.00;4.97;;;15.10;78.90;;;;;;4900900;29;20036;-85
2023/03/19 10:27:28;;;;;;;5.45;4.68;;;15.20;78.80;;;;;;4901007;29;20067;-84
2023/03/19 10:29:55;;;;;;;6.18;5.38;;;15.30;78.80;;;;;;4881983;29;20044;-84
2023/03/19 10:32:44;;;;;;;6.00;5.35;;;15.30;78.70;;;;;;4938832;29;20076;-86
2023/03/19 10:35:33;;;;;;;6.40;5.63;;;15.40;79.50;;;;;;4924779;29;20036;-85
2023/03/19 10:38:15;;;;;;;6.85;5.45;;;15.50;78.80;;;;;;4924304;29;20043;-85
2023/03/19 10:40:49;;;;;;;7.80;6.03;;;15.50;78.80;;;;;;4924630;29;20104;-85
2023/03/19 10:43:24;;;;;;;7.38;6.45;;;15.60;78.70;;;;;;4893073;29;20044;-85
2023/03/19 10:45:50;;;;;;;8.00;6.53;;;15.70;78.80;;;;;;4924838;29;20401;-84
2023/03/19 10:48:17;;;;;;;7.82;7.00;;;15.70;78.70;;;;;;4922939;29;20029;-84
2023/03/19 10:51:02;;;;;;;7.60;6.78;;;15.80;78.80;;;;;;4892444;29;20454;-89
2023/03/19 10:53:36;;;;;;;7.97;7.13;;;15.80;78.90;;;;;;4923427;29;20450;-84
2023/03/19 10:56:16;;;;;;;7.95;7.15;;;15.90;78.90;;;;;;4938284;29;20036;-85
2023/03/19 10:59:02;;;;;;;8.30;7.50;;;16.00;78.90;;;;;;4906940;29;20063;-84
2023/03/19 11:01:42;;;;;;;8.57;7.20;;;16.10;79.00;;;;;;4907226;29;20064;-85
2023/03/19 11:04:22;;;;;;;8.10;7.30;;;16.10;78.90;;;;;;4906912;29;20042;-86
2023/03/19 11:06:50;;;;;;;7.75;6.95;;;16.20;78.90;;;;;;4906571;29;20020;-86
2023/03/19 11:09:37;;;;;;;8.68;7.78;;;16.20;78.80;;;;;;4906661;29;20032;-85
2023/03/19 11:12:36;;;;;;;8.80;7.90;;;16.30;78.90;;;;;;4908726;29;20028;-84
2023/03/19 11:15:05;;;;;;;8.63;7.75;;;16.40;78.90;;;;;;4908702;29;20036;-85
2023/03/19 11:17:46;;;;;;;9.30;8.40;;;16.40;78.70;;;;;;4925750;29;20012;-88
2023/03/19 11:20:27;;;;;;;8.88;7.93;;;16.50;78.90;;;;;;4908186;29;20171;-86
2023/03/19 11:22:55;;;;;;;9.52;8.52;;;16.60;78.90;;;;;;4923359;29;20055;-86
2023/03/19 11:25:35;;;;;;;9.18;8.27;;;16.70;78.80;;;;;;4891720;29;20492;-86
2023/03/19 11:28:07;;;;;;;9.43;8.48;;;16.70;79.60;;;;;;4922561;29;20036;-89
2023/03/19 11:30:56;;;;;;;9.80;8.82;;;16.80;78.80;;;;;;4907259;29;20036;-88
2023/03/19 11:33:36;;;;;;;10.27;9.27;;;16.90;78.90;;;;;;4922720;29;20577;-86
2023/03/19 11:36:19;;;;;;;9.57;8.63;;;16.90;78.90;;;;;;4891168;29;20115;-87
2023/03/19 11:38:57;;;;;;;10.23;9.23;;;17.00;78.90;;;;;;4906424;29;20036;-85
2023/03/19 11:42:21;;;;;;;11.18;9.88;;;17.00;79.00;;;;;;4936008;29;20481;-92
2023/03/19 11:45:03;;;;;;;10.00;9.00;;;17.10;79.10;;;;;;4877269;29;20135;-88
2023/03/19 11:47:50;;;;;;;9.95;8.95;;;17.20;79.10;;;;;;4918790;29;20084;-88
2023/03/19 11:50:42;;;;;;;10.73;9.63;;;17.20;79.10;;;;;;4920116;29;20036;-86
2023/03/19 11:53:35;;;;;;;9.95;8.98;;;17.30;79.20;;;;;;4919293;29;20040;-87
2023/03/19 11:56:08;;;;;;;10.88;9.70;;;17.30;79.90;;;;;;4903911;29;20556;-86
2023/03/19 11:58:48;;;;;;;10.40;9.40;;;17.30;79.20;;;;;;4919106;29;20055;-86
2023/03/19 12:01:42;;;;;;;10.73;9.68;;;17.40;79.30;;;;;;4935202;29;20032;-88
2023/03/19 12:04:11;;;;;;;9.95;8.95;;;17.40;79.40;;;;;;4935110;29;20083;-84
2023/03/19 12:07:17;;;;;;;11.38;10.27;;;17.50;79.40;;;;;;4934951;29;20120;-88
2023/03/19 12:10:08;;;;;;;10.65;9.55;;;17.50;79.50;;;;;;4866309;29;20131;-89
2023/03/19 12:12:48;;;;;;;10.48;9.35;;;17.60;79.40;;;;;;4935077;29;20059;-87
2023/03/19 12:15:25;;;;;;;10.52;9.45;;;17.60;79.50;;;;;;4917987;29;20040;-85
2023/03/19 12:17:58;;;;;;;11.25;10.05;;;17.70;79.50;;;;;;4918765;29;20039;-86
2023/03/19 12:20:33;;;;;;;10.95;9.70;;;17.70;79.50;;;;;;4888176;29;20060;-85
2023/03/19 12:23:33;;;;;;;11.82;9.75;;;17.80;79.60;;;;;;4917596;29;20040;-85
2023/03/19 12:26:03;;;;;;;11.27;10.07;;;17.80;79.70;;;;;;4918029;29;20072;-88
2023/03/19 12:28:34;;;;;;;11.18;9.93;;;17.90;79.60;;;;;;4902576;29;20028;-83
2023/03/19 12:31:24;;;;;;;11.32;10.13;;;17.90;79.70;;;;;;4902571;29;20032;-85
2023/03/19 12:34:13;;;;;;;10.52;9.43;;;17.90;79.70;;;;;;4903037;29;20063;-86
2023/03/19 12:37:17;;;;;;;12.02;9.73;;;18.00;79.60;;;;;;4902588;29;20043;-84
2023/03/19 12:39:59;;;;;;;10.45;9.27;;;18.00;79.70;;;;;;4876085;29;20040;-83
2023/03/19 12:42:33;;;;;;;9.88;8.48;;;18.00;79.60;;;;;;4902928;29;20111;-88
2023/03/19 12:45:03;;;;;;;12.07;9.80;;;18.10;79.60;;;;;;4918288;29;20032;-87
2023/03/19 12:47:37;;;;;;;11.02;9.77;;;18.10;79.60;;;;;;4887190;29;20095;-82
2023/03/19 12:50:09;;;;;;;11.45;10.27;;;18.10;79.50;;;;;;4919502;29;20032;-86
2023/03/19 12:52:45;;;;;;;12.32;9.80;;;18.20;79.60;;;;;;4886559;29;20036;-86
2023/03/19 12:55:11;;;;;;;10.68;9.50;;;18.20;79.60;;;;;;4902058;29;20037;-86
2023/03/19 12:57:44;;;;;;;10.48;9.15;;;18.20;79.60;;;;;;4901576;29;20379;-84
2023/03/19 13:00:27;;;;;;;10.80;9.15;;;18.20;79.60;;;;;;4917902;29;20035;-85
2023/03/19 13:03:21;;;;;;;10.50;9.40;;;18.30;79.70;;;;;;4903296;29;20028;-85
2023/03/19 13:06:02;;;;;;;10.80;8.38;;;18.30;79.60;;;;;;4916846;29;20028;-83
2023/03/19 13:08:52;;;;;;;10.68;8.75;;;18.30;79.50;;;;;;4886078;29;20039;-84
2023/03/19 13:11:44;;;;;;;11.00;8.60;;;18.40;79.70;;;;;;4917992;29;20060;-82